Time;durP1;ratioP1;P1;durP2;ratioP2;P2;SDS_P1;SDS_P2;PMS_P1;PMS_P2;Temp;Humidity;BMP_temperature;BMP_pressure;BME280_temperature;BME280_humidity;BME280_pressure;Samples;Min_cycle;Max_cycle;Signal;HPM_P1;HPM_P2
2022/01/18 00:01:49;;;;;;;16.40;7.43;;;4.00;99.70;;;;;;5013053;28;20491;-67
2022/01/18 00:04:16;;;;;;;17.10;7.27;;;4.00;99.70;;;;;;5012366;28;20457;-67
2022/01/18 00:06:47;;;;;;;17.07;7.30;;;4.00;99.70;;;;;;5012057;28;20446;-67
2022/01/18 00:09:14;;;;;;;15.70;6.97;;;4.00;99.70;;;;;;5012361;28;20448;-67
2022/01/18 00:11:46;;;;;;;17.30;7.30;;;4.10;99.70;;;;;;5012967;28;20453;-66
2022/01/18 00:14:23;;;;;;;13.90;6.70;;;4.10;99.70;;;;;;5012926;28;20450;-67
2022/01/18 00:17:03;;;;;;;16.90;7.30;;;4.20;99.70;;;;;;5012748;28;20488;-67
2022/01/18 00:19:29;;;;;;;16.93;7.03;;;4.10;99.70;;;;;;5012097;28;20489;-67
2022/01/18 00:22:09;;;;;;;15.60;7.13;;;4.10;99.70;;;;;;5012530;28;20456;-67
2022/01/18 00:24:36;;;;;;;22.00;8.40;;;4.30;99.70;;;;;;5012679;28;20489;-67
2022/01/18 00:27:08;;;;;;;16.67;7.80;;;4.30;99.70;;;;;;5011822;28;20438;-67
2022/01/18 00:29:38;;;;;;;18.43;7.83;;;4.30;99.70;;;;;;5012215;28;20491;-68
2022/01/18 00:32:12;;;;;;;17.67;8.30;;;4.20;99.70;;;;;;5012520;28;20507;-67
2022/01/18 00:34:41;;;;;;;16.10;7.67;;;4.10;99.70;;;;;;5012281;28;20628;-67
2022/01/18 00:37:26;;;;;;;17.87;8.70;;;4.10;99.70;;;;;;5012241;28;20488;-67
2022/01/18 00:39:53;;;;;;;21.37;8.93;;;4.10;99.70;;;;;;5011924;28;21002;-67
2022/01/18 00:42:21;;;;;;;22.03;9.17;;;4.00;99.70;;;;;;5012286;28;20905;-67
2022/01/18 00:44:48;;;;;;;18.77;8.23;;;4.00;99.70;;;;;;5011697;28;20456;-67
2022/01/18 00:47:15;;;;;;;21.03;8.10;;;4.00;99.70;;;;;;5012353;28;20903;-67
2022/01/18 00:49:45;;;;;;;19.73;8.50;;;4.00;99.70;;;;;;5011248;28;20476;-67
2022/01/18 00:52:13;;;;;;;17.53;9.00;;;4.00;99.70;;;;;;5011996;28;20470;-67
2022/01/18 00:54:44;;;;;;;18.00;7.73;;;4.00;99.70;;;;;;5012069;28;20457;-67
2022/01/18 00:57:10;;;;;;;21.73;9.83;;;4.00;99.70;;;;;;5012124;28;21009;-67
2022/01/18 00:59:40;;;;;;;20.43;8.40;;;4.00;99.70;;;;;;5011556;28;20458;-67
2022/01/18 01:02:07;;;;;;;20.40;8.83;;;4.00;99.70;;;;;;5011894;28;20465;-68
2022/01/18 01:04:38;;;;;;;14.20;7.30;;;4.00;99.70;;;;;;5082150;23;20488;-67
2022/01/18 01:07:06;;;;;;;15.37;7.30;;;3.90;99.70;;;;;;5031176;28;20514;-67
2022/01/18 01:09:33;;;;;;;18.43;7.47;;;4.00;99.70;;;;;;5031068;28;20452;-67
2022/01/18 01:12:00;;;;;;;19.37;8.80;;;4.00;99.70;;;;;;5031480;28;20441;-67
2022/01/18 01:14:28;;;;;;;19.73;7.87;;;4.00;99.70;;;;;;5019997;28;20469;-67
2022/01/18 01:17:05;;;;;;;19.03;7.63;;;4.00;99.70;;;;;;5010896;28;20543;-67
2022/01/18 01:19:50;;;;;;;19.17;7.47;;;4.00;99.70;;;;;;5011419;28;20831;-67
2022/01/18 01:36:14;;;;;;;18.90;7.63;;;4.10;99.70;;;;;;5011096;28;20437;-67
2022/01/18 01:44:21;;;;;;;15.60;7.43;;;4.00;99.70;;;;;;5011499;28;20448;-68
2022/01/18 01:46:48;;;;;;;19.60;7.60;;;4.00;99.70;;;;;;5011479;28;20556;-67
2022/01/18 01:49:16;;;;;;;16.47;7.13;;;3.90;99.70;;;;;;5011089;28;20449;-67
2022/01/18 01:51:43;;;;;;;16.87;7.20;;;4.10;99.70;;;;;;5011333;28;20448;-67
2022/01/18 01:54:11;;;;;;;16.37;7.20;;;4.10;99.70;;;;;;5011280;28;20551;-67
2022/01/18 01:56:38;;;;;;;17.57;7.70;;;4.10;99.70;;;;;;5011037;28;20457;-67
2022/01/18 01:59:06;;;;;;;18.50;7.90;;;4.00;99.70;;;;;;5010787;28;20825;-67
2022/01/18 02:01:40;;;;;;;18.33;8.13;;;4.00;99.70;;;;;;5011324;28;20453;-67
2022/01/18 02:04:06;;;;;;;18.87;9.17;;;4.00;99.70;;;;;;5011103;28;20480;-67
2022/01/18 02:06:34;;;;;;;19.53;9.20;;;4.00;99.70;;;;;;5011203;28;20456;-67
2022/01/18 02:09:01;;;;;;;21.20;9.17;;;4.10;99.70;;;;;;5010739;28;20977;-67
2022/01/18 02:11:28;;;;;;;18.93;9.37;;;4.10;99.70;;;;;;5010766;28;20457;-67
2022/01/18 02:13:56;;;;;;;16.67;7.40;;;4.00;99.70;;;;;;5010380;28;20473;-67
2022/01/18 02:21:53;;;;;;;20.33;8.30;;;4.00;99.70;;;;;;5010442;28;20429;-68
2022/01/18 02:24:21;;;;;;;19.40;8.03;;;4.00;99.70;;;;;;5010297;28;20918;-67
2022/01/18 02:26:48;;;;;;;15.43;7.40;;;4.00;99.70;;;;;;5009610;28;20800;-67
2022/01/18 02:29:16;;;;;;;17.80;8.03;;;4.00;99.70;;;;;;5012126;28;21032;-67
2022/01/18 02:31:44;;;;;;;19.80;8.30;;;4.00;99.70;;;;;;5014325;28;20510;-67
2022/01/18 02:34:12;;;;;;;17.80;7.37;;;4.00;99.70;;;;;;5013926;28;20461;-67
2022/01/18 02:36:40;;;;;;;23.47;8.60;;;4.00;99.70;;;;;;5014077;28;20445;-67
2022/01/18 02:39:08;;;;;;;16.97;8.20;;;4.10;99.70;;;;;;5003474;28;20826;-67
2022/01/18 02:41:36;;;;;;;17.50;8.40;;;4.10;99.70;;;;;;5013932;28;20860;-67
2022/01/18 02:44:05;;;;;;;20.23;8.23;;;4.00;99.70;;;;;;5013887;28;20465;-67
2022/01/18 02:46:32;;;;;;;17.10;8.00;;;4.00;99.70;;;;;;5014128;28;20479;-67
2022/01/18 02:49:00;;;;;;;17.90;7.50;;;4.00;99.70;;;;;;5013200;28;20816;-67
2022/01/18 02:51:27;;;;;;;19.20;7.47;;;4.20;99.70;;;;;;5013597;28;20452;-68
2022/01/18 02:53:57;;;;;;;17.20;8.07;;;4.10;99.70;;;;;;5013660;28;20465;-68
2022/01/18 02:56:26;;;;;;;22.10;8.90;;;4.00;99.70;;;;;;5013610;28;20480;-67
2022/01/18 02:58:59;;;;;;;20.53;8.30;;;4.00;99.70;;;;;;5013375;28;20481;-67
2022/01/18 03:04:10;;;;;;;18.53;8.43;;;4.00;99.70;;;;;;5013578;28;20471;-67
2022/01/18 03:06:37;;;;;;;22.70;8.73;;;3.90;99.70;;;;;;5013428;28;20452;-68
2022/01/18 03:09:03;;;;;;;19.77;9.20;;;3.90;99.70;;;;;;5013520;28;20445;-67
2022/01/18 03:11:31;;;;;;;21.63;8.57;;;3.90;99.70;;;;;;5013293;28;20453;-67
2022/01/18 03:13:58;;;;;;;18.13;7.70;;;3.90;99.70;;;;;;5013630;28;20473;-68
2022/01/18 03:16:25;;;;;;;19.50;8.77;;;3.90;99.70;;;;;;5013269;28;20501;-67
2022/01/18 03:18:51;;;;;;;17.23;8.20;;;4.00;99.70;;;;;;5012700;28;20695;-68
2022/01/18 03:21:18;;;;;;;20.70;8.50;;;3.90;99.70;;;;;;5013381;28;20453;-67
2022/01/18 03:23:50;;;;;;;20.23;8.90;;;3.90;99.70;;;;;;5013022;28;20466;-67
2022/01/18 03:26:18;;;;;;;21.70;9.23;;;3.90;99.70;;;;;;5012719;28;20453;-67
2022/01/18 03:28:45;;;;;;;19.83;8.80;;;3.90;99.70;;;;;;5002878;28;20448;-67
2022/01/18 03:31:12;;;;;;;20.80;8.60;;;3.90;99.70;;;;;;5012944;28;20892;-68
2022/01/18 03:33:39;;;;;;;19.97;8.73;;;3.90;99.70;;;;;;5013237;28;20473;-66
2022/01/18 03:36:06;;;;;;;19.77;9.40;;;3.90;99.70;;;;;;5012122;28;20446;-67
2022/01/18 03:38:33;;;;;;;18.23;8.40;;;4.00;99.70;;;;;;5012328;28;20484;-67
2022/01/18 03:41:01;;;;;;;20.27;8.90;;;3.90;99.70;;;;;;5012900;28;20450;-67
2022/01/18 03:43:28;;;;;;;18.13;8.53;;;3.90;99.70;;;;;;5012689;28;20557;-67
2022/01/18 03:46:01;;;;;;;17.90;8.20;;;3.90;99.70;;;;;;5012739;28;20877;-67
2022/01/18 03:48:31;;;;;;;19.50;8.60;;;3.90;99.70;;;;;;5012706;28;20515;-67
2022/01/18 03:50:58;;;;;;;19.70;8.53;;;4.00;99.70;;;;;;5012643;28;20489;-67
2022/01/18 03:53:25;;;;;;;15.97;7.10;;;4.10;99.70;;;;;;5012419;28;21024;-67
2022/01/18 03:55:53;;;;;;;19.70;9.13;;;4.30;99.70;;;;;;5012779;28;20446;-68
2022/01/18 03:58:20;;;;;;;23.03;9.40;;;4.20;99.70;;;;;;5011883;28;20484;-67
2022/01/18 04:00:47;;;;;;;21.60;9.00;;;4.00;99.70;;;;;;5012541;28;20900;-67
2022/01/18 04:03:15;;;;;;;20.10;8.70;;;3.90;99.70;;;;;;5012402;28;20449;-67
2022/01/18 04:05:42;;;;;;;22.47;8.77;;;4.10;99.70;;;;;;5012276;28;20995;-67
2022/01/18 04:08:09;;;;;;;20.73;9.30;;;4.10;99.70;;;;;;5012273;28;20789;-67
2022/01/18 04:10:36;;;;;;;19.47;8.90;;;4.00;99.70;;;;;;5012560;28;20468;-67
2022/01/18 04:13:03;;;;;;;20.50;8.70;;;3.90;99.70;;;;;;5012232;28;20457;-67
2022/01/18 04:15:31;;;;;;;22.40;9.17;;;4.00;99.70;;;;;;5012655;28;20508;-67
2022/01/18 04:29:01;;;;;;;21.83;10.00;;;3.90;99.70;;;;;;5011972;28;20496;-67
2022/01/18 04:31:29;;;;;;;21.43;9.60;;;4.10;99.70;;;;;;5011972;28;20451;-67
2022/01/18 04:33:57;;;;;;;22.30;9.77;;;4.00;99.70;;;;;;5011895;28;20469;-67
2022/01/18 04:36:26;;;;;;;21.77;9.70;;;4.00;99.70;;;;;;5001764;28;20536;-67
2022/01/18 04:38:53;;;;;;;26.23;9.80;;;3.90;99.70;;;;;;5011472;28;20532;-67
2022/01/18 04:41:26;;;;;;;23.37;10.50;;;3.90;99.70;;;;;;5011788;28;20446;-67
2022/01/18 04:44:08;;;;;;;22.87;9.40;;;3.90;99.70;;;;;;5011795;28;20473;-67
2022/01/18 04:49:20;;;;;;;29.20;10.50;;;3.90;99.70;;;;;;5011457;28;20448;-67
2022/01/18 04:51:48;;;;;;;21.73;10.27;;;3.90;99.70;;;;;;5011201;28;20453;-68
2022/01/18 04:54:16;;;;;;;24.57;10.63;;;3.90;99.70;;;;;;5011448;28;20998;-67
2022/01/18 04:59:27;;;;;;;24.63;10.27;;;3.90;99.70;;;;;;5011081;28;20476;-67
2022/01/18 05:01:55;;;;;;;22.67;10.70;;;3.90;99.70;;;;;;5011626;28;20449;-67
2022/01/18 05:04:22;;;;;;;23.27;10.43;;;3.90;99.70;;;;;;5011837;28;20477;-67
2022/01/18 05:06:52;;;;;;;27.57;11.13;;;3.90;99.70;;;;;;5011979;28;20453;-67
2022/01/18 05:09:18;;;;;;;22.17;10.13;;;3.90;99.70;;;;;;5011463;28;20449;-67
2022/01/18 05:11:52;;;;;;;22.27;10.23;;;3.90;99.70;;;;;;5011522;28;20457;-67
2022/01/18 05:14:27;;;;;;;23.13;10.37;;;3.80;99.70;;;;;;5011755;28;20986;-67
2022/01/18 05:17:01;;;;;;;27.77;10.60;;;3.80;99.70;;;;;;5011243;28;20484;-67
2022/01/18 05:19:40;;;;;;;27.83;10.30;;;3.80;99.70;;;;;;5011002;28;20551;-67
2022/01/18 05:24:53;;;;;;;24.80;11.10;;;3.90;99.70;;;;;;5011859;28;20452;-67
2022/01/18 05:27:20;;;;;;;24.40;10.40;;;3.90;99.70;;;;;;5010439;28;20939;-67
2022/01/18 05:29:46;;;;;;;28.30;12.77;;;3.90;99.70;;;;;;5010751;28;20445;-67
2022/01/18 05:32:13;;;;;;;30.07;12.43;;;3.90;99.70;;;;;;5011617;28;20441;-67
2022/01/18 05:34:40;;;;;;;27.63;11.10;;;3.90;99.70;;;;;;5011492;28;21001;-67
2022/01/18 05:37:08;;;;;;;24.17;11.20;;;3.90;99.70;;;;;;5007586;28;20891;-67
2022/01/18 05:39:35;;;;;;;29.00;12.17;;;3.90;99.70;;;;;;5007803;28;20485;-67
2022/01/18 05:42:07;;;;;;;31.87;12.60;;;3.90;99.70;;;;;;5004054;28;20515;-67
2022/01/18 05:44:34;;;;;;;30.53;12.30;;;3.90;99.70;;;;;;5003064;28;20477;-67
2022/01/18 05:47:00;;;;;;;35.07;13.63;;;3.90;99.70;;;;;;5011414;28;20446;-67
2022/01/18 05:49:27;;;;;;;36.70;13.10;;;3.90;99.70;;;;;;5010278;28;20458;-67
2022/01/18 05:51:54;;;;;;;32.93;13.67;;;4.00;99.70;;;;;;5003542;28;20896;-67
2022/01/18 05:54:22;;;;;;;35.37;13.87;;;4.10;99.70;;;;;;4999478;28;20490;-67
2022/01/18 05:56:48;;;;;;;35.57;13.50;;;4.00;99.70;;;;;;4996419;28;20532;-66
2022/01/18 05:59:21;;;;;;;42.60;14.33;;;4.00;99.70;;;;;;5001867;28;20481;-67
2022/01/18 06:01:50;;;;;;;36.07;14.40;;;4.00;99.70;;;;;;4999660;28;20450;-67
2022/01/18 06:06:50;;;;;;;33.70;13.53;;;4.00;99.70;;;;;;5010951;28;20542;-67
2022/01/18 06:07:05;;;;;;;37.17;13.63;;;4.00;99.70;;;;;;5006967;28;20970;-67
2022/01/18 06:09:33;;;;;;;33.60;12.77;;;4.00;99.70;;;;;;5013591;28;20739;-66
2022/01/18 06:12:00;;;;;;;40.00;15.10;;;4.00;99.70;;;;;;5010824;28;20690;-67
2022/01/18 06:14:27;;;;;;;40.53;15.83;;;4.10;99.70;;;;;;5011375;28;20493;-67
2022/01/18 06:16:54;;;;;;;45.67;16.97;;;4.00;99.70;;;;;;5004578;28;20495;-67
2022/01/18 06:19:20;;;;;;;64.30;26.30;;;4.20;99.70;;;;;;5012617;28;21169;-67
2022/01/18 06:21:47;;;;;;;56.50;23.27;;;4.10;99.70;;;;;;5012651;28;20456;-67
2022/01/18 06:24:14;;;;;;;53.00;21.70;;;4.00;99.70;;;;;;5012859;28;20465;-67
2022/01/18 06:26:44;;;;;;;53.03;20.30;;;4.00;99.70;;;;;;5011800;28;20449;-67
2022/01/18 06:29:11;;;;;;;42.10;17.20;;;4.00;99.70;;;;;;5011691;28;20449;-68
2022/01/18 06:31:38;;;;;;;44.20;15.93;;;4.20;99.70;;;;;;5012967;28;20511;-68
2022/01/18 06:34:06;;;;;;;45.97;16.33;;;4.20;99.70;;;;;;5014555;28;20472;-67
2022/01/18 06:36:32;;;;;;;43.50;16.30;;;4.30;99.70;;;;;;5014216;28;20492;-67
2022/01/18 06:38:59;;;;;;;43.07;15.20;;;4.30;99.70;;;;;;5012542;28;20476;-67
2022/01/18 06:41:26;;;;;;;49.23;16.87;;;4.20;99.70;;;;;;5012593;28;20510;-67
2022/01/18 06:43:54;;;;;;;46.40;15.83;;;4.20;99.70;;;;;;5013127;28;20466;-68
2022/01/18 06:46:21;;;;;;;45.23;17.10;;;4.10;99.70;;;;;;5003370;28;20452;-68
2022/01/18 06:48:48;;;;;;;40.90;14.53;;;4.20;99.70;;;;;;5013501;28;20445;-67
2022/01/18 06:51:15;;;;;;;46.20;16.63;;;4.20;99.70;;;;;;5014311;28;20450;-67
2022/01/18 06:53:46;;;;;;;49.90;18.10;;;4.20;99.70;;;;;;5014470;28;21001;-67
2022/01/18 06:56:18;;;;;;;53.50;17.20;;;4.10;99.70;;;;;;5014316;28;20969;-67
2022/01/18 06:58:45;;;;;;;44.03;15.53;;;4.10;99.70;;;;;;5013837;28;20906;-67
2022/01/18 07:01:15;;;;;;;48.20;17.80;;;4.10;99.70;;;;;;5014170;28;20448;-67
2022/01/18 07:03:42;;;;;;;53.83;17.07;;;4.00;99.70;;;;;;5014211;28;20488;-67
2022/01/18 07:06:09;;;;;;;56.03;16.93;;;4.00;99.70;;;;;;5037039;23;20867;-65
2022/01/18 07:08:36;;;;;;;50.13;15.80;;;4.00;99.70;;;;;;5013210;28;20491;-65
2022/01/18 07:11:03;;;;;;;46.63;16.70;;;4.00;99.70;;;;;;5014075;28;20499;-64
2022/01/18 07:13:30;;;;;;;44.60;16.50;;;4.10;99.70;;;;;;5014028;28;20438;-64
2022/01/18 07:15:57;;;;;;;50.53;16.80;;;4.10;99.70;;;;;;5013361;28;20843;-64
2022/01/18 07:18:25;;;;;;;45.70;15.27;;;4.00;99.70;;;;;;5013166;28;20477;-64
2022/01/18 07:20:52;;;;;;;44.50;15.00;;;3.90;99.70;;;;;;5004882;28;20478;-64
2022/01/18 07:23:18;;;;;;;44.87;15.60;;;3.90;99.70;;;;;;5003639;28;20465;-65
2022/01/18 07:25:48;;;;;;;44.97;15.20;;;3.90;99.70;;;;;;5010725;28;20466;-65
2022/01/18 07:28:16;;;;;;;42.80;15.17;;;3.90;99.70;;;;;;5011278;28;20454;-64
2022/01/18 07:30:43;;;;;;;44.20;15.20;;;3.90;99.70;;;;;;5010480;28;20874;-64
2022/01/18 07:33:12;;;;;;;42.73;14.70;;;3.80;99.70;;;;;;5012282;28;20449;-63
2022/01/18 07:35:41;;;;;;;48.23;16.10;;;3.80;99.70;;;;;;5001363;28;20816;-64
2022/01/18 07:38:12;;;;;;;41.87;16.03;;;3.80;99.70;;;;;;4994556;28;20458;-64
2022/01/18 07:40:40;;;;;;;48.40;16.80;;;3.90;99.70;;;;;;4996250;28;20450;-64
2022/01/18 07:43:06;;;;;;;46.07;16.03;;;3.90;99.70;;;;;;4995853;28;20535;-64
2022/01/18 07:45:33;;;;;;;44.47;15.10;;;3.80;99.70;;;;;;4996136;28;20977;-64
2022/01/18 07:48:00;;;;;;;45.67;15.00;;;3.80;99.70;;;;;;4994578;28;20895;-64
2022/01/18 07:50:27;;;;;;;46.07;15.90;;;3.80;99.70;;;;;;4995475;28;20445;-64
2022/01/18 07:52:56;;;;;;;43.80;15.43;;;4.00;99.70;;;;;;5002837;28;20450;-64
2022/01/18 07:55:22;;;;;;;37.73;14.33;;;3.90;99.70;;;;;;4995950;28;21236;-64
2022/01/18 07:57:49;;;;;;;39.67;14.73;;;3.90;99.70;;;;;;4998158;28;20967;-64
2022/01/18 08:00:17;;;;;;;40.80;14.37;;;3.90;99.70;;;;;;4996403;28;20481;-64
2022/01/18 08:02:45;;;;;;;43.97;14.80;;;3.90;99.70;;;;;;5011569;28;20446;-64
2022/01/18 08:05:13;;;;;;;37.17;13.90;;;3.90;99.70;;;;;;5010035;28;20524;-64
2022/01/18 08:07:40;;;;;;;39.77;14.70;;;3.80;99.70;;;;;;4992969;28;20962;-62
2022/01/18 08:10:10;;;;;;;40.73;15.37;;;3.80;99.70;;;;;;4994665;28;20910;-64
2022/01/18 08:12:37;;;;;;;47.00;15.73;;;3.80;99.70;;;;;;4994755;28;20461;-64
2022/01/18 08:15:13;;;;;;;52.47;16.90;;;3.80;99.70;;;;;;4994501;28;20466;-64
2022/01/18 08:17:42;;;;;;;44.23;15.70;;;3.90;99.70;;;;;;4992941;28;20870;-58
2022/01/18 08:20:13;;;;;;;43.03;14.90;;;3.90;99.70;;;;;;4992326;28;20881;-64
2022/01/18 08:22:40;;;;;;;44.90;14.73;;;4.00;99.70;;;;;;5003511;28;20440;-64
2022/01/18 08:25:10;;;;;;;43.80;15.07;;;4.10;99.70;;;;;;5005091;28;21026;-64
2022/01/18 08:27:36;;;;;;;42.77;15.20;;;4.20;99.70;;;;;;4992934;28;20462;-63
2022/01/18 08:30:07;;;;;;;41.90;16.13;;;4.20;99.70;;;;;;4994034;28;20447;-64
2022/01/18 08:32:33;;;;;;;42.70;14.10;;;4.30;99.70;;;;;;5010340;28;20445;-64
2022/01/18 08:35:00;;;;;;;41.50;15.17;;;4.30;99.70;;;;;;5010873;28;20469;-64
2022/01/18 08:37:27;;;;;;;39.03;14.30;;;4.50;99.70;;;;;;4992502;28;20454;-64
2022/01/18 08:39:53;;;;;;;40.50;15.57;;;4.50;99.70;;;;;;4992150;28;20486;-65
2022/01/18 08:42:21;;;;;;;40.10;14.63;;;4.50;99.70;;;;;;4992292;28;20450;-64
2022/01/18 08:44:48;;;;;;;40.90;15.10;;;4.70;99.70;;;;;;4991751;28;20529;-65
2022/01/18 08:47:17;;;;;;;37.17;14.73;;;4.80;99.70;;;;;;4990353;28;20451;-64
2022/01/18 08:49:45;;;;;;;37.60;13.93;;;4.80;99.70;;;;;;4990065;28;20494;-65
2022/01/18 08:52:12;;;;;;;40.57;14.07;;;4.80;99.70;;;;;;4990245;28;20453;-65
2022/01/18 08:54:39;;;;;;;38.20;14.33;;;5.00;99.70;;;;;;4991907;28;20533;-65
2022/01/18 08:57:15;;;;;;;41.03;15.33;;;5.00;99.70;;;;;;5086295;28;20515;-66
2022/01/18 08:59:43;;;;;;;46.20;15.47;;;5.00;99.70;;;;;;5084986;28;20441;-66
2022/01/18 09:02:12;;;;;;;35.90;13.90;;;4.90;99.70;;;;;;5070042;28;20446;-66
2022/01/18 09:04:38;;;;;;;43.20;15.60;;;4.90;99.70;;;;;;5066923;28;20475;-66
2022/01/18 09:07:08;;;;;;;35.77;13.80;;;4.80;99.70;;;;;;5050963;28;20831;-66
2022/01/18 09:09:35;;;;;;;37.10;13.90;;;4.80;99.70;;;;;;5049130;28;20590;-64
2022/01/18 09:12:03;;;;;;;42.30;14.63;;;4.80;99.70;;;;;;5051016;28;20455;-66
2022/01/18 09:14:31;;;;;;;40.30;14.17;;;4.80;99.70;;;;;;5049556;28;20978;-66
2022/01/18 09:16:58;;;;;;;42.40;15.03;;;4.70;99.70;;;;;;5050595;28;20533;-65
2022/01/18 09:19:25;;;;;;;43.90;15.60;;;4.80;99.70;;;;;;5048932;28;20949;-66
2022/01/18 09:21:51;;;;;;;33.27;12.67;;;4.80;99.70;;;;;;5050296;28;20884;-66
2022/01/18 09:24:18;;;;;;;39.23;14.00;;;4.90;99.70;;;;;;5049441;28;20447;-66
2022/01/18 09:26:45;;;;;;;38.77;14.80;;;4.80;99.70;;;;;;5048495;28;20439;-64
2022/01/18 09:29:14;;;;;;;34.57;13.87;;;4.80;99.70;;;;;;5049894;28;20447;-64
2022/01/18 09:31:42;;;;;;;38.93;14.40;;;4.80;99.70;;;;;;5049399;28;20517;-64
2022/01/18 09:34:09;;;;;;;38.70;14.90;;;4.70;99.70;;;;;;5050222;28;20444;-64
2022/01/18 09:36:36;;;;;;;39.33;15.47;;;4.70;99.70;;;;;;5049022;28;20521;-64
2022/01/18 09:39:05;;;;;;;38.37;15.40;;;4.60;99.70;;;;;;5049898;28;20444;-64
2022/01/18 09:41:39;;;;;;;37.23;13.60;;;4.60;99.70;;;;;;5049119;28;20451;-64
2022/01/18 09:44:06;;;;;;;46.07;17.00;;;4.60;99.70;;;;;;5050105;28;20510;-65
2022/01/18 09:46:33;;;;;;;34.87;14.07;;;4.80;99.70;;;;;;5048860;28;20509;-64
2022/01/18 09:49:01;;;;;;;36.70;13.33;;;4.90;99.70;;;;;;5049661;28;20444;-63
2022/01/18 09:51:29;;;;;;;34.63;13.00;;;5.30;99.70;;;;;;5048923;28;20448;-63
2022/01/18 09:53:56;;;;;;;37.80;13.73;;;5.60;99.70;;;;;;5049868;28;21001;-63
2022/01/18 09:56:24;;;;;;;33.73;13.53;;;5.60;99.70;;;;;;5048100;28;21041;-65
2022/01/18 09:58:51;;;;;;;32.77;13.30;;;5.70;99.70;;;;;;5045810;28;21088;-65
2022/01/18 10:01:18;;;;;;;36.23;13.97;;;6.00;99.70;;;;;;5047533;28;20479;-64
2022/01/18 10:03:45;;;;;;;35.27;13.10;;;5.80;99.70;;;;;;5049902;28;20869;-63
2022/01/18 10:06:13;;;;;;;55.37;14.00;;;5.50;99.70;;;;;;5045667;28;20468;-63
2022/01/18 10:08:42;;;;;;;32.93;12.10;;;5.30;99.70;;;;;;5033281;28;20449;-63
2022/01/18 10:11:14;;;;;;;34.00;13.40;;;5.10;99.70;;;;;;5024911;28;20492;-64
2022/01/18 10:13:42;;;;;;;38.00;13.50;;;4.90;99.70;;;;;;5040773;28;20475;-64
2022/01/18 10:16:10;;;;;;;36.53;13.87;;;5.00;99.70;;;;;;5023348;28;20571;-64
2022/01/18 10:18:47;;;;;;;33.60;13.00;;;5.20;99.70;;;;;;5035287;28;20832;-64
2022/01/18 10:21:26;;;;;;;34.30;12.60;;;5.00;99.70;;;;;;5024282;28;20866;-64
2022/01/18 10:24:09;;;;;;;33.53;13.17;;;4.90;99.70;;;;;;5034513;28;20506;-63
2022/01/18 10:26:39;;;;;;;34.57;13.43;;;4.80;99.70;;;;;;5031401;28;20477;-63
2022/01/18 10:29:07;;;;;;;40.67;14.30;;;4.80;99.70;;;;;;5032510;28;20449;-66
2022/01/18 10:31:40;;;;;;;39.13;13.70;;;4.90;99.70;;;;;;5034754;28;20444;-63
2022/01/18 10:34:29;;;;;;;39.43;13.83;;;5.00;99.70;;;;;;5034783;28;20487;-64
2022/01/18 10:37:03;;;;;;;35.53;14.40;;;5.20;99.70;;;;;;5035060;28;20484;-64
2022/01/18 10:39:33;;;;;;;38.63;13.67;;;5.10;99.70;;;;;;5034306;28;20872;-63
2022/01/18 10:42:02;;;;;;;36.70;13.87;;;5.00;99.70;;;;;;5035450;28;20451;-64
2022/01/18 10:44:32;;;;;;;35.70;13.40;;;4.90;99.70;;;;;;5023003;28;20544;-64
2022/01/18 10:46:59;;;;;;;32.00;11.93;;;4.90;99.70;;;;;;5035345;28;20444;-64
2022/01/18 10:49:29;;;;;;;42.17;12.13;;;5.20;99.70;;;;;;5034281;28;20448;-63
2022/01/18 10:51:58;;;;;;;35.10;13.30;;;5.10;99.70;;;;;;5034929;28;20468;-64
2022/01/18 10:54:40;;;;;;;30.23;10.87;;;4.90;99.70;;;;;;5034799;28;20672;-63
2022/01/18 10:57:11;;;;;;;28.83;10.70;;;5.10;99.70;;;;;;5035418;28;21096;-64
2022/01/18 10:59:38;;;;;;;30.30;11.37;;;5.40;99.70;;;;;;5033761;28;20806;-64
2022/01/18 11:02:12;;;;;;;36.30;13.67;;;5.30;99.70;;;;;;5045392;28;20907;-67
2022/01/18 11:04:40;;;;;;;34.47;12.83;;;5.10;99.70;;;;;;5051490;28;20925;-67
2022/01/18 11:07:07;;;;;;;34.37;11.80;;;5.30;99.70;;;;;;5049772;28;20444;-64
2022/01/18 11:09:35;;;;;;;32.70;12.07;;;5.20;99.70;;;;;;5050320;28;20866;-65
2022/01/18 11:12:04;;;;;;;32.20;12.00;;;5.20;99.70;;;;;;5049620;28;20834;-65
2022/01/18 11:14:32;;;;;;;29.27;11.20;;;5.40;99.70;;;;;;5051036;28;20962;-64
2022/01/18 11:17:00;;;;;;;31.70;11.83;;;5.40;99.70;;;;;;5049870;28;20506;-64
2022/01/18 11:19:33;;;;;;;27.47;10.60;;;5.50;99.70;;;;;;5049681;28;20554;-64
2022/01/18 11:22:03;;;;;;;25.27;9.77;;;5.60;99.70;;;;;;5049704;28;20501;-64
2022/01/18 11:24:31;;;;;;;25.17;10.20;;;5.70;99.70;;;;;;5022348;28;20455;-65
2022/01/18 11:27:00;;;;;;;27.63;10.27;;;5.80;99.70;;;;;;5033649;28;20451;-64
2022/01/18 11:29:28;;;;;;;29.07;12.30;;;5.90;99.70;;;;;;5030389;28;20535;-65
2022/01/18 11:31:57;;;;;;;23.70;8.73;;;6.00;99.70;;;;;;5028235;28;20493;-62
2022/01/18 11:34:32;;;;;;;20.20;8.20;;;5.90;99.70;;;;;;5027959;28;20981;-64
2022/01/18 11:37:09;;;;;;;21.00;8.33;;;5.80;99.70;;;;;;5028842;28;20488;-62
2022/01/18 11:39:36;;;;;;;28.07;8.70;;;5.80;99.70;;;;;;5021220;28;20452;-64
2022/01/18 11:42:08;;;;;;;21.27;8.07;;;5.80;99.70;;;;;;5034364;28;20449;-64
2022/01/18 11:44:35;;;;;;;26.03;8.90;;;5.80;99.70;;;;;;5033583;28;20878;-64
2022/01/18 11:47:04;;;;;;;20.90;8.40;;;5.70;99.70;;;;;;5034711;28;20476;-64
2022/01/18 11:49:33;;;;;;;21.07;9.27;;;5.80;99.70;;;;;;5021531;28;20452;-64
2022/01/18 11:52:03;;;;;;;21.03;9.60;;;5.70;99.70;;;;;;5033795;28;20453;-65
2022/01/18 11:54:40;;;;;;;21.67;8.87;;;5.60;99.70;;;;;;5021297;28;20830;-64
2022/01/18 11:57:35;;;;;;;22.03;9.07;;;5.60;99.70;;;;;;5034325;28;20484;-65
2022/01/18 12:00:24;;;;;;;23.13;9.17;;;5.50;99.70;;;;;;5035473;28;20460;-64
2022/01/18 12:02:55;;;;;;;21.63;8.80;;;5.50;99.70;;;;;;5021981;28;20784;-64
2022/01/18 12:05:24;;;;;;;23.47;9.17;;;5.40;99.70;;;;;;5033966;28;20971;-64
2022/01/18 12:07:54;;;;;;;25.87;10.17;;;5.30;99.70;;;;;;5021463;28;20476;-64
2022/01/18 12:10:47;;;;;;;26.27;8.53;;;5.30;99.70;;;;;;5034070;28;20444;-64
2022/01/18 12:13:28;;;;;;;22.20;9.30;;;5.20;99.70;;;;;;5024794;28;20444;-64
2022/01/18 12:15:57;;;;;;;25.93;10.10;;;5.20;99.70;;;;;;5033762;28;20471;-64
2022/01/18 12:18:26;;;;;;;30.83;9.30;;;5.10;99.70;;;;;;5032770;28;20523;-64
2022/01/18 12:20:54;;;;;;;24.87;9.23;;;5.10;99.70;;;;;;5034070;28;20962;-64
2022/01/18 12:23:23;;;;;;;23.97;9.30;;;5.10;99.70;;;;;;5032076;28;20502;-64
2022/01/18 12:25:57;;;;;;;26.43;9.37;;;5.00;99.70;;;;;;5033950;28;20467;-64
2022/01/18 12:29:19;;;;;;;21.43;9.77;;;4.90;99.70;;;;;;5031453;28;20451;-64
2022/01/18 12:32:18;;;;;;;21.63;8.60;;;4.90;99.70;;;;;;5025634;28;20535;-64
2022/01/18 12:34:47;;;;;;;22.93;8.67;;;5.20;99.70;;;;;;5023192;28;20464;-64
2022/01/18 12:37:42;;;;;;;24.70;9.20;;;5.50;99.70;;;;;;5033588;28;20479;-63
2022/01/18 12:40:11;;;;;;;29.47;9.30;;;5.70;99.70;;;;;;5032373;28;20456;-65
2022/01/18 12:45:28;;;;;;;20.70;8.13;;;5.70;99.70;;;;;;5033641;28;20451;-66
2022/01/18 12:47:59;;;;;;;20.60;7.77;;;6.00;99.70;;;;;;5031849;28;20472;-66
2022/01/18 12:50:28;;;;;;;25.27;6.63;;;6.20;99.70;;;;;;5028880;28;20457;-66
2022/01/18 12:52:57;;;;;;;16.07;7.03;;;6.10;99.70;;;;;;5034151;28;20521;-64
2022/01/18 12:55:29;;;;;;;18.73;7.60;;;6.20;99.70;;;;;;5030878;28;20484;-66
2022/01/18 12:58:07;;;;;;;16.53;7.03;;;6.20;99.70;;;;;;5030664;28;20484;-64
2022/01/18 13:00:42;;;;;;;15.07;6.00;;;6.10;99.70;;;;;;5031088;28;20641;-64
2022/01/18 13:03:09;;;;;;;13.50;6.10;;;6.20;99.70;;;;;;5029436;28;20455;-66
2022/01/18 13:05:39;;;;;;;18.43;6.03;;;6.00;99.70;;;;;;5044047;22;20507;-64
2022/01/18 13:08:07;;;;;;;10.33;4.80;;;6.10;99.70;;;;;;5028283;28;20444;-66
2022/01/18 13:10:39;;;;;;;11.13;4.93;;;6.00;99.70;;;;;;5030195;28;20448;-66
2022/01/18 13:13:08;;;;;;;13.30;5.00;;;6.00;99.70;;;;;;5030672;28;20440;-65
2022/01/18 13:24:49;;;;;;;10.80;4.80;;;5.80;99.70;;;;;;5030567;28;20439;-66
2022/01/18 13:27:23;;;;;;;10.33;4.40;;;5.60;99.70;;;;;;5010445;28;20457;-66
2022/01/18 13:29:52;;;;;;;9.57;4.40;;;5.60;99.70;;;;;;5010760;28;20448;-66
2022/01/18 13:32:25;;;;;;;10.47;4.37;;;5.50;99.70;;;;;;5025053;28;20982;-66
2022/01/18 13:34:56;;;;;;;9.77;4.30;;;5.50;99.70;;;;;;5030321;28;20448;-66
2022/01/18 13:37:26;;;;;;;10.27;4.47;;;5.40;99.70;;;;;;5030485;28;20567;-66
2022/01/18 13:39:54;;;;;;;17.87;4.80;;;5.40;99.70;;;;;;5030062;28;20448;-66
2022/01/18 13:42:25;;;;;;;9.77;4.23;;;5.30;99.70;;;;;;5031984;28;20452;-66
2022/01/18 13:45:09;;;;;;;8.90;4.77;;;5.20;99.70;;;;;;5033546;28;20448;-67
2022/01/18 13:47:42;;;;;;;10.40;4.60;;;5.10;99.70;;;;;;5033905;28;20507;-66
2022/01/18 13:50:35;;;;;;;9.43;4.10;;;5.20;99.70;;;;;;5033741;28;20448;-66
2022/01/18 13:53:05;;;;;;;14.23;4.53;;;5.30;99.70;;;;;;5033694;28;20491;-66